sensor_id;sensor_type;location;lat;lon;timestamp;temperature;humidity
12853;DHT22;6495;51.808;7.478;2023-05-27T00:01:14;12.80;93.30
12853;DHT22;6495;51.808;7.478;2023-05-27T00:03:42;12.80;93.40
12853;DHT22;6495;51.808;7.478;2023-05-27T00:06:11;12.70;93.40
12853;DHT22;6495;51.808;7.478;2023-05-27T00:08:39;12.70;93.30
12853;DHT22;6495;51.808;7.478;2023-05-27T00:11:07;12.70;93.50
12853;DHT22;6495;51.808;7.478;2023-05-27T00:13:35;12.60;93.50
12853;DHT22;6495;51.808;7.478;2023-05-27T00:16:06;12.60;93.60
12853;DHT22;6495;51.808;7.478;2023-05-27T00:18:35;12.60;93.70
12853;DHT22;6495;51.808;7.478;2023-05-27T00:21:03;12.50;93.60
12853;DHT22;6495;51.808;7.478;2023-05-27T00:23:32;12.50;93.70
12853;DHT22;6495;51.808;7.478;2023-05-27T00:26:00;12.50;93.90
12853;DHT22;6495;51.808;7.478;2023-05-27T00:28:28;12.40;94.00
12853;DHT22;6495;51.808;7.478;2023-05-27T00:30:58;12.40;94.00
12853;DHT22;6495;51.808;7.478;2023-05-27T00:33:28;12.40;94.20
12853;DHT22;6495;51.808;7.478;2023-05-27T00:35:56;12.30;94.10
12853;DHT22;6495;51.808;7.478;2023-05-27T00:38:33;12.30;94.10
12853;DHT22;6495;51.808;7.478;2023-05-27T00:41:05;12.20;94.20
12853;DHT22;6495;51.808;7.478;2023-05-27T00:43:35;12.20;94.40
12853;DHT22;6495;51.808;7.478;2023-05-27T00:46:06;12.10;94.50
12853;DHT22;6495;51.808;7.478;2023-05-27T00:48:36;12.10;94.60
12853;DHT22;6495;51.808;7.478;2023-05-27T00:51:04;12.10;94.70
12853;DHT22;6495;51.808;7.478;2023-05-27T00:53:38;12.00;94.60
12853;DHT22;6495;51.808;7.478;2023-05-27T00:56:08;12.00;94.60
12853;DHT22;6495;51.808;7.478;2023-05-27T00:58:37;12.00;94.70
12853;DHT22;6495;51.808;7.478;2023-05-27T01:01:06;11.90;94.80
12853;DHT22;6495;51.808;7.478;2023-05-27T01:03:36;11.90;95.00
12853;DHT22;6495;51.808;7.478;2023-05-27T01:06:15;11.90;94.90
12853;DHT22;6495;51.808;7.478;2023-05-27T01:08:56;11.90;95.00
12853;DHT22;6495;51.808;7.478;2023-05-27T01:11:34;11.80;95.10
12853;DHT22;6495;51.808;7.478;2023-05-27T01:14:10;11.80;95.20
12853;DHT22;6495;51.808;7.478;2023-05-27T01:16:41;11.70;95.20
12853;DHT22;6495;51.808;7.478;2023-05-27T01:19:14;11.70;95.20
12853;DHT22;6495;51.808;7.478;2023-05-27T01:21:59;11.70;95.50
12853;DHT22;6495;51.808;7.478;2023-05-27T01:24:31;11.70;95.50
12853;DHT22;6495;51.808;7.478;2023-05-27T01:26:59;11.60;95.50
12853;DHT22;6495;51.808;7.478;2023-05-27T01:29:29;11.60;95.70
12853;DHT22;6495;51.808;7.478;2023-05-27T01:32:04;11.60;95.70
12853;DHT22;6495;51.808;7.478;2023-05-27T01:34:43;11.50;95.60
12853;DHT22;6495;51.808;7.478;2023-05-27T01:37:19;11.50;95.80
12853;DHT22;6495;51.808;7.478;2023-05-27T01:39:53;11.50;95.90
12853;DHT22;6495;51.808;7.478;2023-05-27T01:42:28;11.40;96.00
12853;DHT22;6495;51.808;7.478;2023-05-27T01:44:57;11.40;96.20
12853;DHT22;6495;51.808;7.478;2023-05-27T01:47:27;11.40;96.20
12853;DHT22;6495;51.808;7.478;2023-05-27T01:49:55;11.30;96.20
12853;DHT22;6495;51.808;7.478;2023-05-27T01:52:24;11.30;96.20
12853;DHT22;6495;51.808;7.478;2023-05-27T01:54:57;11.30;96.40
12853;DHT22;6495;51.808;7.478;2023-05-27T01:57:25;11.30;96.40
12853;DHT22;6495;51.808;7.478;2023-05-27T01:59:53;11.30;96.50
12853;DHT22;6495;51.808;7.478;2023-05-27T02:02:22;11.20;96.60
12853;DHT22;6495;51.808;7.478;2023-05-27T02:04:51;11.20;96.60
12853;DHT22;6495;51.808;7.478;2023-05-27T02:07:20;11.20;96.70
12853;DHT22;6495;51.808;7.478;2023-05-27T02:09:49;11.20;96.80
12853;DHT22;6495;51.808;7.478;2023-05-27T02:12:19;11.10;96.90
12853;DHT22;6495;51.808;7.478;2023-05-27T02:14:49;11.10;97.00
12853;DHT22;6495;51.808;7.478;2023-05-27T02:17:18;11.10;97.10
12853;DHT22;6495;51.808;7.478;2023-05-27T02:19:46;11.10;97.20
12853;DHT22;6495;51.808;7.478;2023-05-27T02:22:14;11.00;97.30
12853;DHT22;6495;51.808;7.478;2023-05-27T02:24:43;11.00;97.40
12853;DHT22;6495;51.808;7.478;2023-05-27T02:27:13;11.00;97.50
12853;DHT22;6495;51.808;7.478;2023-05-27T02:29:43;10.90;97.60
12853;DHT22;6495;51.808;7.478;2023-05-27T02:32:12;10.90;97.60
12853;DHT22;6495;51.808;7.478;2023-05-27T02:34:42;10.90;97.70
12853;DHT22;6495;51.808;7.478;2023-05-27T02:37:11;10.90;97.80
12853;DHT22;6495;51.808;7.478;2023-05-27T02:39:40;10.90;97.90
12853;DHT22;6495;51.808;7.478;2023-05-27T02:42:08;10.90;98.00
12853;DHT22;6495;51.808;7.478;2023-05-27T02:44:36;10.90;98.10
12853;DHT22;6495;51.808;7.478;2023-05-27T02:47:06;10.80;98.10
12853;DHT22;6495;51.808;7.478;2023-05-27T02:49:34;10.80;98.10
12853;DHT22;6495;51.808;7.478;2023-05-27T02:52:03;10.80;98.30
12853;DHT22;6495;51.808;7.478;2023-05-27T02:54:53;10.80;98.30
12853;DHT22;6495;51.808;7.478;2023-05-27T02:57:23;10.80;98.30
12853;DHT22;6495;51.808;7.478;2023-05-27T02:59:52;10.70;98.50
12853;DHT22;6495;51.808;7.478;2023-05-27T03:02:25;10.70;98.50
12853;DHT22;6495;51.808;7.478;2023-05-27T03:04:56;10.70;98.60
12853;DHT22;6495;51.808;7.478;2023-05-27T03:07:36;10.70;98.60
12853;DHT22;6495;51.808;7.478;2023-05-27T03:10:06;10.70;98.90
12853;DHT22;6495;51.808;7.478;2023-05-27T03:12:35;10.60;98.80
12853;DHT22;6495;51.808;7.478;2023-05-27T03:15:04;10.60;99.00
12853;DHT22;6495;51.808;7.478;2023-05-27T03:17:36;10.60;99.00
12853;DHT22;6495;51.808;7.478;2023-05-27T03:20:06;10.60;98.90
12853;DHT22;6495;51.808;7.478;2023-05-27T03:22:35;10.50;99.10
12853;DHT22;6495;51.808;7.478;2023-05-27T03:25:04;10.50;99.20
12853;DHT22;6495;51.808;7.478;2023-05-27T03:27:34;10.50;99.20
12853;DHT22;6495;51.808;7.478;2023-05-27T03:30:09;10.40;99.30
12853;DHT22;6495;51.808;7.478;2023-05-27T03:32:45;10.40;99.40
12853;DHT22;6495;51.808;7.478;2023-05-27T03:35:16;10.40;99.50
12853;DHT22;6495;51.808;7.478;2023-05-27T03:37:46;10.40;99.60
12853;DHT22;6495;51.808;7.478;2023-05-27T03:40:14;10.40;99.80
12853;DHT22;6495;51.808;7.478;2023-05-27T03:42:42;10.40;99.90
12853;DHT22;6495;51.808;7.478;2023-05-27T03:45:12;10.40;99.90
12853;DHT22;6495;51.808;7.478;2023-05-27T03:47:40;10.30;99.90
12853;DHT22;6495;51.808;7.478;2023-05-27T03:50:10;10.30;99.90
12853;DHT22;6495;51.808;7.478;2023-05-27T03:52:38;10.30;99.90
12853;DHT22;6495;51.808;7.478;2023-05-27T03:55:08;10.30;99.90
12853;DHT22;6495;51.808;7.478;2023-05-27T03:57:37;10.30;99.90
12853;DHT22;6495;51.808;7.478;2023-05-27T04:00:07;10.20;99.90
12853;DHT22;6495;51.808;7.478;2023-05-27T04:02:47;10.20;99.90
12853;DHT22;6495;51.808;7.478;2023-05-27T04:05:17;10.20;99.90
12853;DHT22;6495;51.808;7.478;2023-05-27T04:07:45;10.20;99.90
12853;DHT22;6495;51.808;7.478;2023-05-27T04:10:14;10.20;99.90
12853;DHT22;6495;51.808;7.478;2023-05-27T04:12:42;10.10;99.90
12853;DHT22;6495;51.808;7.478;2023-05-27T04:15:10;10.10;99.90
12853;DHT22;6495;51.808;7.478;2023-05-27T04:17:38;10.10;99.90
12853;DHT22;6495;51.808;7.478;2023-05-27T04:20:09;10.10;99.90
12853;DHT22;6495;51.808;7.478;2023-05-27T04:22:45;10.10;99.90
12853;DHT22;6495;51.808;7.478;2023-05-27T04:25:13;10.10;99.90
12853;DHT22;6495;51.808;7.478;2023-05-27T04:27:57;10.00;99.90
12853;DHT22;6495;51.808;7.478;2023-05-27T04:30:28;10.00;99.90
12853;DHT22;6495;51.808;7.478;2023-05-27T04:32:59;10.00;99.90
12853;DHT22;6495;51.808;7.478;2023-05-27T04:35:28;10.00;99.90
12853;DHT22;6495;51.808;7.478;2023-05-27T04:38:00;10.00;99.90
12853;DHT22;6495;51.808;7.478;2023-05-27T04:40:36;9.90;99.90
12853;DHT22;6495;51.808;7.478;2023-05-27T04:43:18;9.90;99.90
12853;DHT22;6495;51.808;7.478;2023-05-27T04:45:47;9.80;99.90
12853;DHT22;6495;51.808;7.478;2023-05-27T04:48:16;9.80;99.90
12853;DHT22;6495;51.808;7.478;2023-05-27T04:50:44;9.80;99.90
12853;DHT22;6495;51.808;7.478;2023-05-27T04:53:14;9.80;99.90
12853;DHT22;6495;51.808;7.478;2023-05-27T04:55:43;9.90;99.90
12853;DHT22;6495;51.808;7.478;2023-05-27T04:58:11;9.90;99.90
12853;DHT22;6495;51.808;7.478;2023-05-27T05:00:40;9.90;99.90
12853;DHT22;6495;51.808;7.478;2023-05-27T05:03:18;9.90;99.90
12853;DHT22;6495;51.808;7.478;2023-05-27T05:05:49;10.00;99.90
12853;DHT22;6495;51.808;7.478;2023-05-27T05:08:20;10.00;99.90
12853;DHT22;6495;51.808;7.478;2023-05-27T05:10:51;10.00;99.90
12853;DHT22;6495;51.808;7.478;2023-05-27T05:13:19;10.00;99.90
12853;DHT22;6495;51.808;7.478;2023-05-27T05:15:48;10.10;99.90
12853;DHT22;6495;51.808;7.478;2023-05-27T05:18:17;10.10;99.90
12853;DHT22;6495;51.808;7.478;2023-05-27T05:20:46;10.10;99.90
12853;DHT22;6495;51.808;7.478;2023-05-27T05:23:21;10.20;99.90
12853;DHT22;6495;51.808;7.478;2023-05-27T05:25:49;10.20;99.90
12853;DHT22;6495;51.808;7.478;2023-05-27T05:28:23;10.20;99.90
12853;DHT22;6495;51.808;7.478;2023-05-27T05:30:51;10.30;99.90
12853;DHT22;6495;51.808;7.478;2023-05-27T05:33:20;10.30;99.90
12853;DHT22;6495;51.808;7.478;2023-05-27T05:35:50;10.30;99.90
12853;DHT22;6495;51.808;7.478;2023-05-27T05:38:25;10.40;99.90
12853;DHT22;6495;51.808;7.478;2023-05-27T05:40:53;10.40;99.90
12853;DHT22;6495;51.808;7.478;2023-05-27T05:43:22;10.50;99.90
12853;DHT22;6495;51.808;7.478;2023-05-27T05:45:52;10.60;99.90
12853;DHT22;6495;51.808;7.478;2023-05-27T05:48:21;10.60;99.90
12853;DHT22;6495;51.808;7.478;2023-05-27T05:50:49;10.70;99.90
12853;DHT22;6495;51.808;7.478;2023-05-27T05:53:18;10.70;99.90
12853;DHT22;6495;51.808;7.478;2023-05-27T05:55:48;10.80;99.90
12853;DHT22;6495;51.808;7.478;2023-05-27T05:58:19;10.90;99.90
12853;DHT22;6495;51.808;7.478;2023-05-27T06:00:50;11.00;99.90
12853;DHT22;6495;51.808;7.478;2023-05-27T06:03:37;11.00;99.90
12853;DHT22;6495;51.808;7.478;2023-05-27T06:06:09;11.10;99.90
12853;DHT22;6495;51.808;7.478;2023-05-27T06:08:55;11.20;99.90
12853;DHT22;6495;51.808;7.478;2023-05-27T06:11:25;11.40;99.90
12853;DHT22;6495;51.808;7.478;2023-05-27T06:13:53;11.50;99.90
12853;DHT22;6495;51.808;7.478;2023-05-27T06:16:22;11.60;99.90
12853;DHT22;6495;51.808;7.478;2023-05-27T06:18:50;11.70;99.90
12853;DHT22;6495;51.808;7.478;2023-05-27T06:21:19;11.70;99.90
12853;DHT22;6495;51.808;7.478;2023-05-27T06:24:06;11.80;99.90
12853;DHT22;6495;51.808;7.478;2023-05-27T06:26:49;11.90;99.90
12853;DHT22;6495;51.808;7.478;2023-05-27T06:29:27;12.00;99.90
12853;DHT22;6495;51.808;7.478;2023-05-27T06:31:55;12.20;99.90
12853;DHT22;6495;51.808;7.478;2023-05-27T06:34:23;12.30;99.90
12853;DHT22;6495;51.808;7.478;2023-05-27T06:36:52;12.40;99.90
12853;DHT22;6495;51.808;7.478;2023-05-27T06:39:21;12.50;99.90
12853;DHT22;6495;51.808;7.478;2023-05-27T06:41:50;12.60;99.90
12853;DHT22;6495;51.808;7.478;2023-05-27T06:44:35;12.70;99.90
12853;DHT22;6495;51.808;7.478;2023-05-27T06:47:11;12.70;99.90
12853;DHT22;6495;51.808;7.478;2023-05-27T06:49:41;12.80;99.90
12853;DHT22;6495;51.808;7.478;2023-05-27T06:52:09;12.90;99.90
12853;DHT22;6495;51.808;7.478;2023-05-27T06:55:11;13.00;99.90
12853;DHT22;6495;51.808;7.478;2023-05-27T06:58:13;13.20;99.90
12853;DHT22;6495;51.808;7.478;2023-05-27T07:00:50;13.30;99.90
12853;DHT22;6495;51.808;7.478;2023-05-27T07:03:45;13.30;99.90
12853;DHT22;6495;51.808;7.478;2023-05-27T07:06:19;13.40;99.90
12853;DHT22;6495;51.808;7.478;2023-05-27T07:08:49;13.50;99.90
12853;DHT22;6495;51.808;7.478;2023-05-27T07:11:23;13.60;99.90
12853;DHT22;6495;51.808;7.478;2023-05-27T07:13:59;13.70;99.90
12853;DHT22;6495;51.808;7.478;2023-05-27T07:16:30;13.70;99.90
12853;DHT22;6495;51.808;7.478;2023-05-27T07:18:59;13.80;99.90
12853;DHT22;6495;51.808;7.478;2023-05-27T07:21:31;13.90;99.90
12853;DHT22;6495;51.808;7.478;2023-05-27T07:24:02;14.00;99.90
12853;DHT22;6495;51.808;7.478;2023-05-27T07:26:33;14.10;99.90
12853;DHT22;6495;51.808;7.478;2023-05-27T07:29:03;14.20;99.90
12853;DHT22;6495;51.808;7.478;2023-05-27T07:31:57;14.30;99.90
12853;DHT22;6495;51.808;7.478;2023-05-27T07:34:29;14.40;99.90
12853;DHT22;6495;51.808;7.478;2023-05-27T07:36:58;14.60;99.90
12853;DHT22;6495;51.808;7.478;2023-05-27T07:39:26;14.70;99.90
12853;DHT22;6495;51.808;7.478;2023-05-27T07:41:55;14.80;99.90
12853;DHT22;6495;51.808;7.478;2023-05-27T07:44:26;14.80;99.90
12853;DHT22;6495;51.808;7.478;2023-05-27T07:46:55;14.90;99.90
12853;DHT22;6495;51.808;7.478;2023-05-27T07:49:24;15.00;99.90
12853;DHT22;6495;51.808;7.478;2023-05-27T07:52:27;15.20;99.90
12853;DHT22;6495;51.808;7.478;2023-05-27T07:54:58;15.30;99.90
12853;DHT22;6495;51.808;7.478;2023-05-27T07:57:26;15.40;99.90
12853;DHT22;6495;51.808;7.478;2023-05-27T07:59:56;15.40;99.90
12853;DHT22;6495;51.808;7.478;2023-05-27T08:02:35;15.60;99.90
12853;DHT22;6495;51.808;7.478;2023-05-27T08:05:04;15.70;99.90
12853;DHT22;6495;51.808;7.478;2023-05-27T08:07:45;15.80;99.90
12853;DHT22;6495;51.808;7.478;2023-05-27T08:10:43;15.90;99.90
12853;DHT22;6495;51.808;7.478;2023-05-27T08:13:36;16.10;99.90
12853;DHT22;6495;51.808;7.478;2023-05-27T08:16:31;16.20;99.90
12853;DHT22;6495;51.808;7.478;2023-05-27T08:19:16;16.20;99.90
12853;DHT22;6495;51.808;7.478;2023-05-27T08:21:50;16.30;99.90
12853;DHT22;6495;51.808;7.478;2023-05-27T08:24:37;16.40;99.90
12853;DHT22;6495;51.808;7.478;2023-05-27T08:27:42;16.50;99.90
12853;DHT22;6495;51.808;7.478;2023-05-27T08:30:18;16.70;99.90
12853;DHT22;6495;51.808;7.478;2023-05-27T08:33:00;16.80;99.90
12853;DHT22;6495;51.808;7.478;2023-05-27T08:35:29;17.00;99.90
12853;DHT22;6495;51.808;7.478;2023-05-27T08:37:58;17.10;99.90
12853;DHT22;6495;51.808;7.478;2023-05-27T08:40:30;17.20;99.90
12853;DHT22;6495;51.808;7.478;2023-05-27T08:42:59;17.40;99.90
12853;DHT22;6495;51.808;7.478;2023-05-27T08:45:28;17.40;99.90
12853;DHT22;6495;51.808;7.478;2023-05-27T08:47:57;17.50;99.90
12853;DHT22;6495;51.808;7.478;2023-05-27T08:50:34;17.60;99.90
12853;DHT22;6495;51.808;7.478;2023-05-27T08:53:07;17.70;99.90
12853;DHT22;6495;51.808;7.478;2023-05-27T08:55:37;17.70;99.90
12853;DHT22;6495;51.808;7.478;2023-05-27T08:58:10;17.70;99.90
12853;DHT22;6495;51.808;7.478;2023-05-27T09:00:52;17.70;99.90
12853;DHT22;6495;51.808;7.478;2023-05-27T09:03:27;17.70;99.90
12853;DHT22;6495;51.808;7.478;2023-05-27T09:06:08;17.80;99.90
12853;DHT22;6495;51.808;7.478;2023-05-27T09:08:55;18.00;99.90
12853;DHT22;6495;51.808;7.478;2023-05-27T09:11:43;18.10;99.90
12853;DHT22;6495;51.808;7.478;2023-05-27T09:14:19;18.20;99.90
12853;DHT22;6495;51.808;7.478;2023-05-27T09:16:48;18.20;99.90
12853;DHT22;6495;51.808;7.478;2023-05-27T09:19:42;18.30;99.90
12853;DHT22;6495;51.808;7.478;2023-05-27T09:25:28;18.50;99.90
12853;DHT22;6495;51.808;7.478;2023-05-27T09:27:56;18.60;99.90
12853;DHT22;6495;51.808;7.478;2023-05-27T09:30:25;18.80;99.90
12853;DHT22;6495;51.808;7.478;2023-05-27T09:33:00;18.90;99.90
12853;DHT22;6495;51.808;7.478;2023-05-27T09:35:31;18.90;99.90
12853;DHT22;6495;51.808;7.478;2023-05-27T09:38:09;18.90;99.90
12853;DHT22;6495;51.808;7.478;2023-05-27T09:40:37;19.00;99.90
12853;DHT22;6495;51.808;7.478;2023-05-27T09:43:05;19.00;99.90
12853;DHT22;6495;51.808;7.478;2023-05-27T09:45:34;19.00;99.90
12853;DHT22;6495;51.808;7.478;2023-05-27T09:48:03;19.00;99.90
12853;DHT22;6495;51.808;7.478;2023-05-27T09:50:32;19.10;99.90
12853;DHT22;6495;51.808;7.478;2023-05-27T09:53:04;19.20;99.90
12853;DHT22;6495;51.808;7.478;2023-05-27T09:55:40;19.30;99.90
12853;DHT22;6495;51.808;7.478;2023-05-27T09:58:09;19.40;99.90
12853;DHT22;6495;51.808;7.478;2023-05-27T10:00:41;19.40;99.90
12853;DHT22;6495;51.808;7.478;2023-05-27T10:03:12;19.40;99.90
12853;DHT22;6495;51.808;7.478;2023-05-27T10:05:44;19.50;99.90
12853;DHT22;6495;51.808;7.478;2023-05-27T10:08:14;19.60;99.90
12853;DHT22;6495;51.808;7.478;2023-05-27T10:11:31;19.50;99.90
12853;DHT22;6495;51.808;7.478;2023-05-27T10:14:05;19.60;99.90
12853;DHT22;6495;51.808;7.478;2023-05-27T10:16:38;19.60;99.90
12853;DHT22;6495;51.808;7.478;2023-05-27T10:19:17;19.70;99.90
12853;DHT22;6495;51.808;7.478;2023-05-27T10:22:07;19.90;99.90
12853;DHT22;6495;51.808;7.478;2023-05-27T10:24:42;19.90;99.90
12853;DHT22;6495;51.808;7.478;2023-05-27T10:27:18;19.90;99.90
12853;DHT22;6495;51.808;7.478;2023-05-27T10:29:58;19.90;99.80
12853;DHT22;6495;51.808;7.478;2023-05-27T10:32:28;19.90;99.70
12853;DHT22;6495;51.808;7.478;2023-05-27T10:35:20;19.90;99.50
12853;DHT22;6495;51.808;7.478;2023-05-27T10:38:14;19.90;98.90
12853;DHT22;6495;51.808;7.478;2023-05-27T10:41:01;20.00;98.60
12853;DHT22;6495;51.808;7.478;2023-05-27T10:44:02;19.90;98.10
12853;DHT22;6495;51.808;7.478;2023-05-27T10:46:39;20.00;98.70
12853;DHT22;6495;51.808;7.478;2023-05-27T10:49:34;20.00;98.60
12853;DHT22;6495;51.808;7.478;2023-05-27T10:52:12;20.10;98.60
12853;DHT22;6495;51.808;7.478;2023-05-27T10:54:48;20.10;98.60
12853;DHT22;6495;51.808;7.478;2023-05-27T10:57:33;20.20;98.50
12853;DHT22;6495;51.808;7.478;2023-05-27T11:00:33;20.30;98.30
12853;DHT22;6495;51.808;7.478;2023-05-27T11:03:16;20.30;97.60
12853;DHT22;6495;51.808;7.478;2023-05-27T11:05:45;20.30;97.70
12853;DHT22;6495;51.808;7.478;2023-05-27T11:08:14;20.40;97.80
12853;DHT22;6495;51.808;7.478;2023-05-27T11:10:42;20.50;97.90
12853;DHT22;6495;51.808;7.478;2023-05-27T11:13:11;20.50;97.50
12853;DHT22;6495;51.808;7.478;2023-05-27T11:15:41;20.50;97.30
12853;DHT22;6495;51.808;7.478;2023-05-27T11:18:09;20.50;97.20
12853;DHT22;6495;51.808;7.478;2023-05-27T11:20:38;20.60;97.70
12853;DHT22;6495;51.808;7.478;2023-05-27T11:23:07;20.80;97.60
12853;DHT22;6495;51.808;7.478;2023-05-27T11:25:45;20.80;97.20
12853;DHT22;6495;51.808;7.478;2023-05-27T11:28:14;20.80;95.90
12853;DHT22;6495;51.808;7.478;2023-05-27T11:30:45;20.90;96.80
12853;DHT22;6495;51.808;7.478;2023-05-27T11:33:29;20.90;96.50
12853;DHT22;6495;51.808;7.478;2023-05-27T11:36:05;20.90;96.80
12853;DHT22;6495;51.808;7.478;2023-05-27T11:38:46;20.90;97.20
12853;DHT22;6495;51.808;7.478;2023-05-27T11:41:17;21.00;96.60
12853;DHT22;6495;51.808;7.478;2023-05-27T11:43:50;21.10;96.80
12853;DHT22;6495;51.808;7.478;2023-05-27T11:46:21;21.10;96.50
12853;DHT22;6495;51.808;7.478;2023-05-27T11:53:07;21.30;96.10
12853;DHT22;6495;51.808;7.478;2023-05-27T11:55:36;21.40;96.70
12853;DHT22;6495;51.808;7.478;2023-05-27T11:58:06;21.40;95.80
12853;DHT22;6495;51.808;7.478;2023-05-27T12:05:03;21.50;94.50
12853;DHT22;6495;51.808;7.478;2023-05-27T12:11:10;21.70;95.10
12853;DHT22;6495;51.808;7.478;2023-05-27T12:14:03;21.70;95.80
12853;DHT22;6495;51.808;7.478;2023-05-27T12:17:11;21.80;95.40
12853;DHT22;6495;51.808;7.478;2023-05-27T12:20:13;21.80;94.70
12853;DHT22;6495;51.808;7.478;2023-05-27T12:22:41;21.80;94.70
12853;DHT22;6495;51.808;7.478;2023-05-27T12:25:09;21.80;94.50
12853;DHT22;6495;51.808;7.478;2023-05-27T12:27:54;21.90;94.50
12853;DHT22;6495;51.808;7.478;2023-05-27T12:30:22;21.90;94.10
12853;DHT22;6495;51.808;7.478;2023-05-27T12:32:50;22.00;94.30
12853;DHT22;6495;51.808;7.478;2023-05-27T12:35:20;22.00;94.30
12853;DHT22;6495;51.808;7.478;2023-05-27T12:37:49;22.10;94.10
12853;DHT22;6495;51.808;7.478;2023-05-27T12:40:17;22.10;93.70
12853;DHT22;6495;51.808;7.478;2023-05-27T12:46:04;22.20;93.60
12853;DHT22;6495;51.808;7.478;2023-05-27T12:48:58;22.20;93.50
12853;DHT22;6495;51.808;7.478;2023-05-27T12:51:42;22.20;93.10
12853;DHT22;6495;51.808;7.478;2023-05-27T12:54:10;22.20;93.00
12853;DHT22;6495;51.808;7.478;2023-05-27T12:56:44;22.30;93.40
12853;DHT22;6495;51.808;7.478;2023-05-27T12:59:16;22.30;93.00
12853;DHT22;6495;51.808;7.478;2023-05-27T13:01:45;22.40;92.70
12853;DHT22;6495;51.808;7.478;2023-05-27T13:04:13;22.40;92.80
12853;DHT22;6495;51.808;7.478;2023-05-27T13:06:45;22.40;92.10
12853;DHT22;6495;51.808;7.478;2023-05-27T13:09:16;22.40;92.10
12853;DHT22;6495;51.808;7.478;2023-05-27T13:11:50;22.40;91.90
12853;DHT22;6495;51.808;7.478;2023-05-27T13:14:19;22.50;92.00
12853;DHT22;6495;51.808;7.478;2023-05-27T13:16:47;22.50;92.10
12853;DHT22;6495;51.808;7.478;2023-05-27T13:19:15;22.50;91.80
12853;DHT22;6495;51.808;7.478;2023-05-27T13:21:46;22.70;92.10
12853;DHT22;6495;51.808;7.478;2023-05-27T13:24:21;22.70;91.90
12853;DHT22;6495;51.808;7.478;2023-05-27T13:26:52;22.80;91.70
12853;DHT22;6495;51.808;7.478;2023-05-27T13:29:29;22.80;91.60
12853;DHT22;6495;51.808;7.478;2023-05-27T13:31:57;22.80;91.30
12853;DHT22;6495;51.808;7.478;2023-05-27T13:34:44;22.70;91.50
12853;DHT22;6495;51.808;7.478;2023-05-27T13:37:14;22.80;90.80
12853;DHT22;6495;51.808;7.478;2023-05-27T13:39:43;22.80;91.50
12853;DHT22;6495;51.808;7.478;2023-05-27T13:42:12;22.90;91.50
12853;DHT22;6495;51.808;7.478;2023-05-27T13:44:41;23.00;91.10
12853;DHT22;6495;51.808;7.478;2023-05-27T13:47:10;23.10;90.70
12853;DHT22;6495;51.808;7.478;2023-05-27T13:49:45;23.10;90.50
12853;DHT22;6495;51.808;7.478;2023-05-27T13:52:26;23.10;90.50
12853;DHT22;6495;51.808;7.478;2023-05-27T13:54:56;23.10;90.70
12853;DHT22;6495;51.808;7.478;2023-05-27T14:00:29;23.10;90.30
12853;DHT22;6495;51.808;7.478;2023-05-27T14:03:56;23.20;90.00
12853;DHT22;6495;51.808;7.478;2023-05-27T14:06:24;23.30;90.20
12853;DHT22;6495;51.808;7.478;2023-05-27T14:08:57;23.30;90.10
12853;DHT22;6495;51.808;7.478;2023-05-27T14:11:29;23.30;89.50
12853;DHT22;6495;51.808;7.478;2023-05-27T14:14:42;23.40;89.80
12853;DHT22;6495;51.808;7.478;2023-05-27T14:17:21;23.60;88.90
12853;DHT22;6495;51.808;7.478;2023-05-27T14:23:14;23.70;87.00
12853;DHT22;6495;51.808;7.478;2023-05-27T14:30:20;23.80;85.70
12853;DHT22;6495;51.808;7.478;2023-05-27T14:34:22;24.00;89.00
12853;DHT22;6495;51.808;7.478;2023-05-27T14:38:16;24.00;87.30
12853;DHT22;6495;51.808;7.478;2023-05-27T14:40:47;24.00;88.50
12853;DHT22;6495;51.808;7.478;2023-05-27T14:49:33;24.20;87.40
12853;DHT22;6495;51.808;7.478;2023-05-27T14:52:07;24.20;87.90
12853;DHT22;6495;51.808;7.478;2023-05-27T14:54:40;24.30;87.70
12853;DHT22;6495;51.808;7.478;2023-05-27T14:57:17;24.40;87.60
12853;DHT22;6495;51.808;7.478;2023-05-27T14:59:48;24.40;87.00
12853;DHT22;6495;51.808;7.478;2023-05-27T15:02:26;24.40;86.00
12853;DHT22;6495;51.808;7.478;2023-05-27T15:05:00;24.50;85.80
12853;DHT22;6495;51.808;7.478;2023-05-27T15:07:35;24.50;84.80
12853;DHT22;6495;51.808;7.478;2023-05-27T15:10:06;24.50;84.60
12853;DHT22;6495;51.808;7.478;2023-05-27T15:12:41;24.60;85.00
12853;DHT22;6495;51.808;7.478;2023-05-27T15:15:12;24.70;83.80
12853;DHT22;6495;51.808;7.478;2023-05-27T15:17:42;24.70;83.00
12853;DHT22;6495;51.808;7.478;2023-05-27T15:20:21;24.70;82.50
12853;DHT22;6495;51.808;7.478;2023-05-27T15:23:30;24.80;81.50
12853;DHT22;6495;51.808;7.478;2023-05-27T15:26:05;24.70;81.10
12853;DHT22;6495;51.808;7.478;2023-05-27T15:28:58;24.80;81.70
12853;DHT22;6495;51.808;7.478;2023-05-27T15:31:26;24.70;80.70
12853;DHT22;6495;51.808;7.478;2023-05-27T15:35:35;24.70;79.90
12853;DHT22;6495;51.808;7.478;2023-05-27T15:38:02;24.70;78.90
12853;DHT22;6495;51.808;7.478;2023-05-27T15:45:32;24.70;78.70
12853;DHT22;6495;51.808;7.478;2023-05-27T15:49:13;24.60;78.70
12853;DHT22;6495;51.808;7.478;2023-05-27T15:51:59;24.70;77.90
12853;DHT22;6495;51.808;7.478;2023-05-27T15:55:46;24.70;77.70
12853;DHT22;6495;51.808;7.478;2023-05-27T16:06:52;24.90;74.80
12853;DHT22;6495;51.808;7.478;2023-05-27T16:10:14;24.90;75.10
12853;DHT22;6495;51.808;7.478;2023-05-27T16:14:45;24.90;72.10
12853;DHT22;6495;51.808;7.478;2023-05-27T16:37:16;24.90;72.40
12853;DHT22;6495;51.808;7.478;2023-05-27T16:39:47;24.90;72.60
12853;DHT22;6495;51.808;7.478;2023-05-27T16:43:01;24.90;72.20
12853;DHT22;6495;51.808;7.478;2023-05-27T17:08:32;25.00;69.90
12853;DHT22;6495;51.808;7.478;2023-05-27T17:11:04;24.90;68.90
12853;DHT22;6495;51.808;7.478;2023-05-27T17:13:32;24.80;69.70
12853;DHT22;6495;51.808;7.478;2023-05-27T17:16:01;24.80;69.30
12853;DHT22;6495;51.808;7.478;2023-05-27T17:18:34;24.80;69.30
12853;DHT22;6495;51.808;7.478;2023-05-27T17:21:04;24.80;69.30
12853;DHT22;6495;51.808;7.478;2023-05-27T17:23:34;24.70;68.90
12853;DHT22;6495;51.808;7.478;2023-05-27T17:26:02;24.70;69.10
12853;DHT22;6495;51.808;7.478;2023-05-27T17:28:31;24.70;69.30
12853;DHT22;6495;51.808;7.478;2023-05-27T17:30:59;24.60;68.50
12853;DHT22;6495;51.808;7.478;2023-05-27T17:33:28;24.60;68.60
12853;DHT22;6495;51.808;7.478;2023-05-27T17:35:56;24.50;68.30
12853;DHT22;6495;51.808;7.478;2023-05-27T17:38:25;24.50;67.90
12853;DHT22;6495;51.808;7.478;2023-05-27T17:40:56;24.30;67.90
12853;DHT22;6495;51.808;7.478;2023-05-27T17:43:28;24.30;68.00
12853;DHT22;6495;51.808;7.478;2023-05-27T17:45:57;24.30;68.90
12853;DHT22;6495;51.808;7.478;2023-05-27T17:48:25;24.20;67.50
12853;DHT22;6495;51.808;7.478;2023-05-27T17:50:54;24.20;67.90
12853;DHT22;6495;51.808;7.478;2023-05-27T17:53:23;24.10;67.80
12853;DHT22;6495;51.808;7.478;2023-05-27T17:55:51;24.10;68.10
12853;DHT22;6495;51.808;7.478;2023-05-27T17:58:27;24.00;68.00
12853;DHT22;6495;51.808;7.478;2023-05-27T18:01:21;24.00;68.10
12853;DHT22;6495;51.808;7.478;2023-05-27T18:03:50;24.00;68.70
12853;DHT22;6495;51.808;7.478;2023-05-27T18:06:29;24.00;68.60
12853;DHT22;6495;51.808;7.478;2023-05-27T18:08:58;23.90;67.80
12853;DHT22;6495;51.808;7.478;2023-05-27T18:11:27;23.80;68.30